Time;durP1;ratioP1;P1;durP2;ratioP2;P2;SDS_P1;SDS_P2;PMS_P1;PMS_P2;Temp;Humidity;BMP_temperature;BMP_pressure;BME280_temperature;BME280_humidity;BME280_pressure;Samples;Min_cycle;Max_cycle;Signal;HPM_P1;HPM_P2
2022/03/31 00:00:38;;;;;;;17.95;9.18;;;;;;;;;;4972904;28;20477;-66
2022/03/31 00:03:06;;;;;;;19.63;9.98;;;;;;;;;;4972372;28;20026;-66
2022/03/31 00:05:32;;;;;;;21.65;9.65;;;;;;;;;;4972546;28;20027;-66
2022/03/31 00:08:09;;;;;;;19.45;10.32;;;;;;;;;;4972037;28;20031;-65
2022/03/31 00:10:37;;;;;;;21.50;10.23;;;;;;;;;;4972843;28;20042;-66
2022/03/31 00:13:05;;;;;;;20.15;10.35;;;;;;;;;;4971941;28;20023;-65
2022/03/31 00:15:31;;;;;;;22.10;10.60;;;;;;;;;;4972685;28;20388;-66
2022/03/31 00:18:00;;;;;;;20.60;11.05;;;;;;;;;;4972781;28;20030;-66
2022/03/31 00:20:26;;;;;;;24.67;12.00;;;;;;;;;;4972729;28;20066;-66
2022/03/31 00:22:52;;;;;;;20.77;11.60;;;;;;;;;;4972854;28;20058;-66
2022/03/31 00:25:18;;;;;;;20.08;11.18;;;;;;;;;;4975347;28;20062;-66
2022/03/31 00:27:44;;;;;;;25.35;12.07;;;;;;;;;;4976063;28;20420;-66
2022/03/31 00:30:11;;;;;;;22.58;11.95;;;;;;;;;;4975865;28;20061;-66
2022/03/31 00:32:37;;;;;;;21.30;12.38;;;;;;;;;;4958946;28;20065;-66
2022/03/31 00:35:04;;;;;;;23.67;11.82;;;;;;;;;;4974804;28;20026;-66
2022/03/31 00:37:29;;;;;;;23.45;11.93;;;;;;;;;;4976319;28;20050;-66
2022/03/31 00:39:55;;;;;;;21.13;11.68;;;;;;;;;;4976416;28;20437;-66
2022/03/31 00:42:22;;;;;;;23.83;12.52;;;;;;;;;;4975660;28;20488;-66
2022/03/31 00:44:47;;;;;;;25.75;13.25;;;;;;;;;;4958949;28;20109;-66
2022/03/31 00:47:13;;;;;;;26.90;13.90;;;;;;;;;;4974284;28;20074;-65
2022/03/31 00:49:39;;;;;;;32.72;14.23;;;;;;;;;;4975683;28;20508;-65
2022/03/31 00:52:05;;;;;;;24.88;13.57;;;;;;;;;;4974185;28;20037;-66
2022/03/31 00:54:32;;;;;;;29.15;14.60;;;;;;;;;;4976010;28;20035;-66
2022/03/31 00:56:59;;;;;;;30.83;15.25;;;;;;;;;;4975910;28;20042;-67
2022/03/31 00:59:25;;;;;;;27.02;14.48;;;;;;;;;;4976001;28;20070;-66
2022/03/31 01:01:51;;;;;;;30.45;15.30;;;;;;;;;;4975705;28;20039;-66
2022/03/31 01:04:17;;;;;;;29.25;14.85;;;;;;;;;;4975272;28;20030;-66
2022/03/31 01:06:43;;;;;;;31.90;15.85;;;;;;;;;;4975742;28;20035;-66
2022/03/31 01:09:09;;;;;;;37.58;16.45;;;;;;;;;;4975144;28;20121;-66
2022/03/31 01:11:35;;;;;;;33.10;15.85;;;;;;;;;;4975420;28;20066;-66
2022/03/31 01:14:01;;;;;;;33.55;17.08;;;;;;;;;;4975588;28;20176;-66
2022/03/31 01:16:30;;;;;;;36.97;16.35;;;;;;;;;;4975437;28;20030;-66
2022/03/31 01:18:56;;;;;;;29.50;15.50;;;;;;;;;;4975575;28;20035;-66
2022/03/31 01:21:21;;;;;;;43.13;16.42;;;;;;;;;;4974893;28;20444;-66
2022/03/31 01:23:47;;;;;;;31.08;16.55;;;;;;;;;;4975745;28;20026;-66
2022/03/31 01:26:13;;;;;;;34.25;16.50;;;;;;;;;;4975020;28;20039;-66
2022/03/31 01:28:43;;;;;;;37.13;16.77;;;;;;;;;;4974937;28;20465;-66
2022/03/31 01:31:10;;;;;;;37.72;17.25;;;;;;;;;;4974515;28;20480;-66
2022/03/31 01:33:36;;;;;;;35.92;17.60;;;;;;;;;;4975164;28;20078;-67
2022/03/31 01:36:07;;;;;;;33.33;16.58;;;;;;;;;;4973961;28;20047;-66
2022/03/31 01:38:33;;;;;;;33.03;17.42;;;;;;;;;;4975196;28;20468;-68
2022/03/31 01:40:58;;;;;;;37.38;17.70;;;;;;;;;;4974922;28;20045;-67
2022/03/31 01:43:23;;;;;;;36.63;17.88;;;;;;;;;;4974420;28;20380;-68
2022/03/31 01:45:49;;;;;;;33.05;17.35;;;;;;;;;;4974793;28;20027;-68
2022/03/31 01:48:17;;;;;;;36.83;17.58;;;;;;;;;;4973916;28;20038;-67
2022/03/31 01:50:43;;;;;;;36.47;17.60;;;;;;;;;;4974832;28;20061;-67
2022/03/31 01:53:09;;;;;;;34.90;16.92;;;;;;;;;;4974193;28;20388;-66
2022/03/31 01:55:35;;;;;;;36.05;16.88;;;;;;;;;;4974244;28;20026;-67
2022/03/31 01:58:00;;;;;;;36.10;17.48;;;;;;;;;;4974772;28;20036;-68
2022/03/31 02:00:26;;;;;;;36.00;18.15;;;;;;;;;;4974089;28;20039;-67
2022/03/31 02:02:52;;;;;;;36.85;17.55;;;;;;;;;;4974722;28;20039;-67
2022/03/31 02:05:17;;;;;;;37.78;17.63;;;;;;;;;;4974026;28;20027;-68
2022/03/31 02:07:42;;;;;;;39.22;16.85;;;;;;;;;;4974097;28;20034;-67
2022/03/31 02:10:09;;;;;;;37.67;17.08;;;;;;;;;;4973838;28;20058;-66
2022/03/31 02:12:35;;;;;;;37.92;18.73;;;;;;;;;;4974379;28;20027;-68
2022/03/31 02:15:04;;;;;;;41.58;17.40;;;;;;;;;;4974635;28;20023;-67
2022/03/31 02:17:30;;;;;;;40.05;18.20;;;;;;;;;;4974555;28;20145;-67
2022/03/31 02:19:56;;;;;;;38.05;17.90;;;;;;;;;;4974700;28;20026;-67
2022/03/31 02:22:22;;;;;;;37.67;18.20;;;;;;;;;;4974030;28;20049;-67
2022/03/31 02:24:48;;;;;;;35.35;18.00;;;;;;;;;;4974511;28;20045;-67
2022/03/31 02:27:13;;;;;;;35.80;17.33;;;;;;;;;;4972543;28;20488;-67
2022/03/31 02:29:39;;;;;;;35.72;17.02;;;;;;;;;;4974269;28;20066;-67
2022/03/31 02:32:06;;;;;;;39.20;18.13;;;;;;;;;;4974027;28;20027;-68
2022/03/31 02:34:31;;;;;;;40.50;18.05;;;;;;;;;;4974355;28;20034;-67
2022/03/31 02:36:57;;;;;;;38.35;18.38;;;;;;;;;;4973914;28;20030;-67
2022/03/31 02:39:22;;;;;;;44.53;18.52;;;;;;;;;;4973437;28;20065;-67
2022/03/31 02:41:48;;;;;;;39.45;18.23;;;;;;;;;;4973806;28;20077;-67
2022/03/31 02:44:14;;;;;;;36.67;17.50;;;;;;;;;;4973165;28;20081;-66
2022/03/31 02:46:39;;;;;;;40.40;18.52;;;;;;;;;;4973541;28;20086;-66
2022/03/31 02:49:05;;;;;;;41.55;18.90;;;;;;;;;;4973835;28;20031;-66
2022/03/31 02:51:30;;;;;;;43.22;19.60;;;;;;;;;;4973488;28;20053;-66
2022/03/31 02:56:40;;;;;;;45.03;18.17;;;;;;;;;;4973932;28;20045;-67
2022/03/31 02:59:07;;;;;;;40.55;20.17;;;;;;;;;;4973813;28;20031;-66
2022/03/31 03:01:32;;;;;;;43.67;18.70;;;;;;;;;;4973881;28;20129;-66
2022/03/31 03:03:59;;;;;;;44.35;18.77;;;;;;;;;;4973389;28;20109;-66
2022/03/31 03:06:25;;;;;;;46.47;20.10;;;;;;;;;;4971685;28;20051;-66
2022/03/31 03:08:51;;;;;;;40.97;19.70;;;;;;;;;;4973936;28;20030;-66
2022/03/31 03:11:17;;;;;;;48.58;20.50;;;;;;;;;;4972955;28;20113;-67
2022/03/31 03:13:44;;;;;;;47.15;19.40;;;;;;;;;;4973357;28;20416;-66
2022/03/31 03:16:11;;;;;;;48.30;20.50;;;;;;;;;;4972774;28;20031;-66
2022/03/31 03:18:37;;;;;;;44.20;18.88;;;;;;;;;;4973333;28;20031;-66
2022/03/31 03:21:04;;;;;;;42.10;19.73;;;;;;;;;;4972037;28;20031;-67
2022/03/31 03:23:34;;;;;;;45.95;20.27;;;;;;;;;;4972668;28;20035;-67
2022/03/31 03:26:03;;;;;;;47.53;19.80;;;;;;;;;;4973549;28;20097;-67
2022/03/31 03:28:30;;;;;;;49.65;20.23;;;;;;;;;;4971632;28;20326;-66
2022/03/31 03:30:58;;;;;;;51.88;20.17;;;;;;;;;;4973286;28;20027;-66
2022/03/31 03:33:24;;;;;;;41.78;19.48;;;;;;;;;;4972898;28;20109;-67
2022/03/31 03:35:49;;;;;;;47.65;20.73;;;;;;;;;;4973341;28;20458;-67
2022/03/31 03:38:16;;;;;;;45.72;20.42;;;;;;;;;;4972317;28;20475;-67
2022/03/31 03:40:42;;;;;;;51.88;21.05;;;;;;;;;;4973156;28;20035;-67
2022/03/31 03:43:09;;;;;;;42.45;20.35;;;;;;;;;;4972917;28;20039;-67
2022/03/31 03:45:36;;;;;;;47.08;20.50;;;;;;;;;;4971949;28;20027;-67
2022/03/31 03:48:01;;;;;;;46.33;19.90;;;;;;;;;;4973122;28;20023;-66
2022/03/31 03:50:27;;;;;;;43.13;19.92;;;;;;;;;;4972208;28;20481;-67
2022/03/31 03:52:52;;;;;;;45.08;19.50;;;;;;;;;;4973159;28;20382;-67
2022/03/31 03:55:18;;;;;;;40.20;19.63;;;;;;;;;;4971307;28;20081;-67
2022/03/31 03:57:44;;;;;;;49.42;19.98;;;;;;;;;;4973133;28;20471;-68
2022/03/31 04:00:10;;;;;;;49.30;21.65;;;;;;;;;;4976333;28;20493;-67
2022/03/31 04:02:36;;;;;;;48.67;20.52;;;;;;;;;;4977076;28;20483;-67
2022/03/31 04:05:02;;;;;;;42.95;20.38;;;;;;;;;;4976990;28;20038;-67
2022/03/31 04:07:28;;;;;;;45.80;20.73;;;;;;;;;;4976394;28;20113;-67
2022/03/31 04:09:53;;;;;;;37.78;18.85;;;;;;;;;;4977257;28;20114;-68
2022/03/31 04:12:18;;;;;;;37.97;19.73;;;;;;;;;;4976003;28;20039;-67
2022/03/31 04:14:44;;;;;;;39.75;19.33;;;;;;;;;;4977132;28;20039;-67
2022/03/31 04:17:09;;;;;;;48.13;19.95;;;;;;;;;;4975493;28;20121;-67
2022/03/31 04:19:35;;;;;;;46.33;20.58;;;;;;;;;;4976179;28;20090;-67
2022/03/31 04:22:00;;;;;;;46.65;19.77;;;;;;;;;;4976536;28;20039;-67
2022/03/31 04:24:26;;;;;;;46.58;20.98;;;;;;;;;;4976169;28;20042;-67
2022/03/31 04:26:51;;;;;;;44.67;19.95;;;;;;;;;;4976576;28;20031;-67
2022/03/31 04:29:16;;;;;;;46.70;20.23;;;;;;;;;;4976086;28;20051;-67
2022/03/31 04:31:43;;;;;;;49.13;21.60;;;;;;;;;;4975303;28;20369;-67
2022/03/31 04:34:09;;;;;;;46.33;20.08;;;;;;;;;;4976566;28;20054;-67
2022/03/31 04:36:35;;;;;;;48.15;21.20;;;;;;;;;;4975841;28;20495;-67
2022/03/31 04:39:00;;;;;;;42.72;20.98;;;;;;;;;;4976461;28;20058;-67
2022/03/31 04:41:26;;;;;;;46.95;21.13;;;;;;;;;;4975843;28;20392;-66
2022/03/31 04:43:53;;;;;;;45.97;21.02;;;;;;;;;;4976356;28;20465;-68
2022/03/31 04:46:19;;;;;;;49.10;20.95;;;;;;;;;;4975748;28;20049;-67
2022/03/31 04:48:44;;;;;;;46.05;20.63;;;;;;;;;;4976420;28;20039;-67
2022/03/31 04:51:10;;;;;;;48.60;21.60;;;;;;;;;;4976307;28;20166;-68
2022/03/31 04:53:35;;;;;;;44.00;20.63;;;;;;;;;;4974195;28;20058;-67
2022/03/31 04:56:01;;;;;;;49.45;22.00;;;;;;;;;;4975909;28;20476;-67
2022/03/31 04:58:26;;;;;;;46.40;22.08;;;;;;;;;;4974876;28;20035;-67
2022/03/31 05:00:52;;;;;;;46.10;20.67;;;;;;;;;;4975894;28;20034;-66
2022/03/31 05:03:17;;;;;;;51.83;22.02;;;;;;;;;;4975116;28;20533;-67
2022/03/31 05:05:43;;;;;;;45.42;21.50;;;;;;;;;;4975621;28;20026;-66
2022/03/31 05:08:08;;;;;;;53.25;21.85;;;;;;;;;;4975718;28;20459;-66
2022/03/31 05:10:34;;;;;;;51.47;21.60;;;;;;;;;;4974221;28;20212;-66
2022/03/31 05:13:00;;;;;;;52.75;21.92;;;;;;;;;;4975954;28;20484;-66
2022/03/31 05:15:25;;;;;;;50.38;21.27;;;;;;;;;;4957919;28;20026;-66
2022/03/31 05:17:51;;;;;;;44.67;20.90;;;;;;;;;;4974537;28;20037;-66
2022/03/31 05:20:16;;;;;;;52.45;21.30;;;;;;;;;;4973796;28;20089;-65
2022/03/31 05:22:41;;;;;;;57.08;23.40;;;;;;;;;;4975231;28;20420;-66
2022/03/31 05:25:09;;;;;;;58.58;22.17;;;;;;;;;;4975377;28;20078;-66
2022/03/31 05:27:40;;;;;;;57.28;23.48;;;;;;;;;;4974542;28;20031;-65
2022/03/31 05:30:06;;;;;;;56.88;22.73;;;;;;;;;;4975324;28;20031;-66
2022/03/31 05:32:32;;;;;;;52.45;23.65;;;;;;;;;;4974419;28;20042;-65
2022/03/31 05:34:57;;;;;;;59.63;23.98;;;;;;;;;;4974003;28;20118;-65
2022/03/31 05:37:23;;;;;;;57.05;23.70;;;;;;;;;;4956844;28;20496;-65
2022/03/31 05:39:55;;;;;;;61.92;24.35;;;;;;;;;;4973862;28;20038;-65
2022/03/31 05:42:20;;;;;;;;;;;;;;;;;;4957615;28;20122;-65
2022/03/31 05:44:45;;;;;;;57.85;22.20;;;;;;;;;;4974817;28;20000;-65
2022/03/31 05:47:11;;;;;;;62.60;23.13;;;;;;;;;;4974937;28;20034;-65
2022/03/31 05:49:36;;;;;;;57.45;23.35;;;;;;;;;;4973926;28;20383;-65
2022/03/31 05:52:02;;;;;;;63.88;24.52;;;;;;;;;;4974944;28;20537;-66
2022/03/31 05:54:28;;;;;;;63.28;24.25;;;;;;;;;;4974039;28;20041;-65
2022/03/31 05:56:53;;;;;;;67.22;24.17;;;;;;;;;;4973499;28;20117;-65
2022/03/31 05:59:19;;;;;;;58.78;25.25;;;;;;;;;;4974297;28;20106;-65
2022/03/31 06:01:44;;;;;;;73.63;26.58;;;;;;;;;;4974840;28;20037;-65
2022/03/31 06:04:09;;;;;;;71.43;26.33;;;;;;;;;;4974851;28;20058;-65
2022/03/31 06:06:35;;;;;;;65.25;25.65;;;;;;;;;;4974254;28;20026;-65
2022/03/31 06:09:00;;;;;;;71.15;26.15;;;;;;;;;;4974643;28;20038;-65
2022/03/31 06:11:26;;;;;;;61.40;24.65;;;;;;;;;;4974142;28;20050;-65
2022/03/31 06:13:52;;;;;;;62.97;25.67;;;;;;;;;;4973566;28;20399;-65
2022/03/31 06:16:17;;;;;;;65.95;25.90;;;;;;;;;;4974327;28;20027;-65
2022/03/31 06:18:43;;;;;;;63.67;24.92;;;;;;;;;;4973920;28;20041;-65
2022/03/31 06:21:08;;;;;;;60.08;24.65;;;;;;;;;;4974879;28;20053;-65
2022/03/31 06:23:34;;;;;;;62.20;25.00;;;;;;;;;;4973700;28;20110;-65
2022/03/31 06:25:59;;;;;;;63.05;25.58;;;;;;;;;;4974608;28;20035;-65
2022/03/31 06:28:28;;;;;;;58.60;24.67;;;;;;;;;;4973630;28;20034;-65
2022/03/31 06:30:54;;;;;;;62.95;25.92;;;;;;;;;;4974409;28;20034;-65
2022/03/31 06:33:20;;;;;;;62.40;24.85;;;;;;;;;;4974039;28;20034;-65
2022/03/31 06:35:46;;;;;;;52.53;23.38;;;;;;;;;;4973066;28;20456;-65
2022/03/31 06:38:12;;;;;;;59.10;24.48;;;;;;;;;;4974209;28;20047;-65
2022/03/31 06:40:40;;;;;;;56.75;24.77;;;;;;;;;;4973569;28;20026;-65
2022/03/31 06:43:06;;;;;;;55.63;24.20;;;;;;;;;;4974269;28;20460;-65
2022/03/31 06:45:32;;;;;;;63.60;25.42;;;;;;;;;;4973577;28;20035;-65
2022/03/31 06:48:43;;;;;;;62.88;25.23;;;;;;;;;;4974347;28;20035;-65
2022/03/31 06:51:09;;;;;;;;;;;;;;;;;;4941375;28;20062;-64
2022/03/31 06:53:39;;;;;;;54.15;23.95;;;;;;;;;;4973439;28;19986;-65
2022/03/31 06:56:05;;;;;;;59.67;25.42;;;;;;;;;;4974031;28;20546;-64
2022/03/31 06:58:31;;;;;;;57.83;24.92;;;;;;;;;;4973038;28;20393;-65
2022/03/31 07:00:59;;;;;;;58.67;25.55;;;;;;;;;;4973990;28;20479;-64
2022/03/31 07:03:26;;;;;;;52.00;24.48;;;;;;;;;;4973007;28;20049;-64
2022/03/31 07:05:51;;;;;;;48.45;23.48;;;;;;;;;;4974072;28;20129;-64
2022/03/31 07:08:17;;;;;;;50.03;24.27;;;;;;;;;;4973912;28;20461;-65
2022/03/31 07:10:44;;;;;;;50.28;23.30;;;;;;;;;;4973269;28;20420;-64
2022/03/31 07:13:09;;;;;;;54.38;23.35;;;;;;;;;;4974123;28;20069;-65
2022/03/31 07:15:34;;;;;;;49.92;23.80;;;;;;;;;;4973495;28;20062;-65
2022/03/31 07:18:04;;;;;;;51.78;22.98;;;;;;;;;;4973212;28;20026;-65
2022/03/31 07:20:33;;;;;;;53.47;24.17;;;;;;;;;;4972711;28;20050;-65
2022/03/31 07:22:59;;;;;;;49.53;23.05;;;;;;;;;;4973389;28;20046;-64
2022/03/31 07:25:26;;;;;;;47.60;23.20;;;;;;;;;;4972960;28;20461;-65
2022/03/31 07:27:51;;;;;;;51.78;23.55;;;;;;;;;;4973636;28;20063;-65
2022/03/31 07:30:19;;;;;;;50.38;22.88;;;;;;;;;;4973518;28;20058;-65
2022/03/31 07:32:56;;;;;;;55.25;23.17;;;;;;;;;;4971405;28;20468;-65
2022/03/31 07:35:25;;;;;;;43.70;21.73;;;;;;;;;;4973292;28;20038;-63
2022/03/31 07:37:52;;;;;;;43.45;22.10;;;;;;;;;;4973342;28;20532;-64
2022/03/31 07:40:20;;;;;;;43.92;19.92;;;;;;;;;;4973385;28;20027;-64
2022/03/31 07:42:45;;;;;;;43.10;19.50;;;;;;;;;;4972540;28;20037;-64
2022/03/31 07:45:14;;;;;;;38.97;19.08;;;;;;;;;;4973466;28;20035;-64
2022/03/31 07:47:41;;;;;;;39.22;19.58;;;;;;;;;;4972377;28;20105;-64
2022/03/31 07:50:09;;;;;;;44.88;19.13;;;;;;;;;;4972887;28;20053;-64
2022/03/31 07:52:35;;;;;;;33.28;17.58;;;;;;;;;;4955345;28;20038;-63
2022/03/31 07:55:01;;;;;;;31.25;17.00;;;;;;;;;;4973276;28;20038;-62
2022/03/31 07:57:29;;;;;;;33.72;17.33;;;;;;;;;;4972344;28;20400;-64
2022/03/31 07:59:55;;;;;;;33.35;17.17;;;;;;;;;;4972942;28;20429;-63
2022/03/31 08:02:23;;;;;;;33.03;17.15;;;;;;;;;;4972922;28;20035;-62
2022/03/31 08:04:48;;;;;;;34.60;17.17;;;;;;;;;;4972531;28;20031;-62
2022/03/31 08:07:14;;;;;;;31.42;16.35;;;;;;;;;;4955909;28;20034;-62
2022/03/31 08:09:39;;;;;;;35.03;16.00;;;;;;;;;;4972494;28;20129;-62
2022/03/31 08:12:06;;;;;;;24.95;14.35;;;;;;;;;;4972785;28;20085;-62
2022/03/31 08:14:32;;;;;;;25.02;13.60;;;;;;;;;;4972282;28;20037;-62
2022/03/31 08:16:57;;;;;;;25.60;14.35;;;;;;;;;;4972424;28;20034;-62
2022/03/31 08:19:23;;;;;;;28.08;14.60;;;;;;;;;;4972393;28;20035;-62
2022/03/31 08:21:48;;;;;;;27.17;13.98;;;;;;;;;;4972061;28;20326;-62
2022/03/31 08:24:15;;;;;;;26.90;14.45;;;;;;;;;;4972978;28;20035;-62
2022/03/31 08:26:42;;;;;;;26.15;14.57;;;;;;;;;;4972310;28;20042;-62
2022/03/31 08:29:08;;;;;;;28.55;14.23;;;;;;;;;;4972790;28;20030;-62
2022/03/31 08:31:34;;;;;;;27.45;14.43;;;;;;;;;;4972048;28;20031;-62
2022/03/31 08:34:04;;;;;;;27.05;13.57;;;;;;;;;;4973019;28;20054;-62
2022/03/31 08:36:30;;;;;;;27.40;13.53;;;;;;;;;;4971266;28;20142;-62
2022/03/31 08:38:56;;;;;;;22.83;13.05;;;;;;;;;;4972482;28;20489;-62
2022/03/31 08:41:28;;;;;;;26.77;13.70;;;;;;;;;;4972836;28;20037;-62
2022/03/31 08:43:54;;;;;;;26.95;13.40;;;;;;;;;;4973150;28;20027;-62
2022/03/31 08:46:21;;;;;;;27.02;14.00;;;;;;;;;;4974217;28;20035;-63
2022/03/31 08:48:46;;;;;;;25.77;14.07;;;;;;;;;;4975264;28;20023;-64
2022/03/31 08:51:12;;;;;;;25.85;14.20;;;;;;;;;;4976150;28;20053;-64
2022/03/31 08:53:37;;;;;;;27.80;14.48;;;;;;;;;;4975590;28;20420;-62
2022/03/31 08:56:04;;;;;;;25.45;14.00;;;;;;;;;;4976213;28;20054;-62
2022/03/31 08:58:30;;;;;;;28.33;15.70;;;;;;;;;;4974934;28;20109;-64
2022/03/31 09:00:55;;;;;;;34.63;17.30;;;;;;;;;;4976046;28;20027;-64
2022/03/31 09:03:35;;;;;;;34.78;16.58;;;;;;;;;;4976130;28;20037;-63
2022/03/31 09:06:01;;;;;;;36.05;17.42;;;;;;;;;;4974947;28;20035;-64
2022/03/31 09:08:26;;;;;;;32.72;16.77;;;;;;;;;;4974529;28;20042;-64
2022/03/31 09:10:57;;;;;;;30.17;15.02;;;;;;;;;;4974958;28;20389;-63
2022/03/31 09:13:28;;;;;;;30.17;16.25;;;;;;;;;;4975925;28;20034;-63
2022/03/31 09:16:04;;;;;;;26.95;14.05;;;;;;;;;;4975284;28;20038;-63
2022/03/31 09:18:32;;;;;;;28.02;13.18;;;;;;;;;;4975481;28;20074;-65
2022/03/31 09:21:00;;;;;;;29.85;14.13;;;;;;;;;;4975514;28;20053;-64
2022/03/31 09:23:52;;;;;;;25.90;14.15;;;;;;;;;;4975431;28;20104;-63
2022/03/31 09:26:18;;;;;;;29.10;14.15;;;;;;;;;;4954262;28;20097;-64
2022/03/31 09:28:45;;;;;;;31.33;15.13;;;;;;;;;;4974942;28;20119;-64
2022/03/31 09:31:12;;;;;;;32.38;16.38;;;;;;;;;;4973669;28;20488;-64
2022/03/31 09:33:49;;;;;;;34.80;17.02;;;;;;;;;;4974590;28;20043;-64
2022/03/31 09:36:21;;;;;;;33.90;17.73;;;;;;;;;;4975078;28;20027;-63
2022/03/31 09:38:58;;;;;;;40.10;19.73;;;;;;;;;;4974477;28;20069;-63
2022/03/31 09:41:26;;;;;;;36.40;19.45;;;;;;;;;;4975345;28;20041;-63
2022/03/31 09:43:56;;;;;;;45.05;21.95;;;;;;;;;;4974586;28;20050;-64
2022/03/31 09:46:25;;;;;;;44.83;22.45;;;;;;;;;;4974121;28;20038;-63
2022/03/31 09:48:52;;;;;;;47.15;21.45;;;;;;;;;;4974719;28;20118;-64
2022/03/31 09:51:20;;;;;;;39.15;20.33;;;;;;;;;;4973487;28;20050;-65
2022/03/31 09:53:50;;;;;;;39.10;18.80;;;;;;;;;;4974533;28;20041;-63
2022/03/31 09:56:18;;;;;;;38.97;18.13;;;;;;;;;;4974704;28;20034;-63
2022/03/31 09:58:44;;;;;;;34.50;18.45;;;;;;;;;;4974165;28;20046;-62
2022/03/31 10:01:10;;;;;;;37.03;18.60;;;;;;;;;;4975004;28;20487;-65
2022/03/31 10:03:38;;;;;;;38.65;18.38;;;;;;;;;;4974334;28;20030;-65
2022/03/31 10:06:58;;;;;;;35.85;17.65;;;;;;;;;;4974662;28;20499;-66
2022/03/31 10:09:24;;;;;;;33.13;17.38;;;;;;;;;;4975349;28;20047;-64
2022/03/31 10:12:31;;;;;;;34.38;16.65;;;;;;;;;;4974090;28;20026;-64
2022/03/31 10:15:00;;;;;;;36.80;17.55;;;;;;;;;;4974302;28;20126;-64
2022/03/31 10:17:28;;;;;;;39.22;18.35;;;;;;;;;;4973630;28;20121;-64
2022/03/31 10:20:05;;;;;;;35.60;17.73;;;;;;;;;;4974018;28;20400;-64
2022/03/31 10:25:17;;;;;;;31.80;17.13;;;;;;;;;;4974470;28;20089;-65
2022/03/31 10:27:45;;;;;;;36.75;18.02;;;;;;;;;;4973928;28;20031;-65
2022/03/31 10:30:13;;;;;;;34.00;17.40;;;;;;;;;;4972991;28;20058;-65
2022/03/31 10:33:03;;;;;;;31.23;17.10;;;;;;;;;;4973795;28;20030;-65
2022/03/31 10:35:32;;;;;;;33.22;17.10;;;;;;;;;;4957155;28;20065;-65
2022/03/31 10:38:10;;;;;;;31.15;17.10;;;;;;;;;;4956379;28;20035;-65
2022/03/31 10:40:38;;;;;;;32.75;17.75;;;;;;;;;;4973513;28;20396;-65
2022/03/31 10:43:05;;;;;;;32.28;17.23;;;;;;;;;;4974306;28;20038;-65
2022/03/31 10:45:39;;;;;;;31.70;18.50;;;;;;;;;;4974311;28;20037;-64
2022/03/31 10:48:36;;;;;;;37.42;18.73;;;;;;;;;;4973985;28;20388;-65
2022/03/31 10:51:10;;;;;;;32.83;17.90;;;;;;;;;;4971829;28;20133;-64
2022/03/31 10:53:39;;;;;;;35.53;18.40;;;;;;;;;;4973459;28;20027;-66
2022/03/31 10:56:18;;;;;;;35.78;17.20;;;;;;;;;;4972819;28;20038;-65
2022/03/31 10:58:44;;;;;;;37.70;18.88;;;;;;;;;;4973184;28;20037;-65
2022/03/31 11:01:11;;;;;;;37.80;18.52;;;;;;;;;;4973810;28;20034;-66
2022/03/31 11:03:37;;;;;;;34.67;18.33;;;;;;;;;;4972902;28;20039;-66
2022/03/31 11:06:10;;;;;;;35.17;18.38;;;;;;;;;;4973607;28;20530;-66
2022/03/31 11:08:43;;;;;;;30.77;18.27;;;;;;;;;;4972837;28;20236;-66
2022/03/31 11:11:19;;;;;;;30.42;17.05;;;;;;;;;;4972509;28;20365;-65
2022/03/31 11:13:45;;;;;;;38.15;17.95;;;;;;;;;;4956189;28;20037;-66
2022/03/31 11:16:11;;;;;;;34.08;17.80;;;;;;;;;;4972135;28;20034;-66
2022/03/31 11:18:36;;;;;;;26.92;15.63;;;;;;;;;;4956301;28;20044;-66
2022/03/31 11:21:03;;;;;;;26.92;16.05;;;;;;;;;;4973403;28;20027;-65
2022/03/31 11:23:30;;;;;;;26.73;14.93;;;;;;;;;;4973590;28;20048;-65
2022/03/31 11:25:57;;;;;;;32.33;16.85;;;;;;;;;;4972834;28;20046;-66
2022/03/31 11:28:27;;;;;;;26.60;15.77;;;;;;;;;;4973026;28;20093;-65
2022/03/31 11:30:54;;;;;;;32.03;16.35;;;;;;;;;;4972901;28;20039;-66
2022/03/31 11:33:21;;;;;;;32.05;17.10;;;;;;;;;;4973084;28;20078;-66
2022/03/31 11:35:51;;;;;;;30.05;17.35;;;;;;;;;;4955442;28;20049;-66
2022/03/31 11:38:20;;;;;;;31.98;18.25;;;;;;;;;;4973657;28;20125;-66
2022/03/31 11:40:48;;;;;;;34.40;19.20;;;;;;;;;;4972866;28;20094;-66
2022/03/31 11:43:16;;;;;;;29.55;17.95;;;;;;;;;;4973684;28;20042;-66
2022/03/31 11:45:49;;;;;;;29.80;17.02;;;;;;;;;;4971890;28;20477;-65
2022/03/31 11:48:19;;;;;;;27.35;16.25;;;;;;;;;;4973617;28;20038;-67
2022/03/31 11:50:56;;;;;;;28.80;15.90;;;;;;;;;;4972580;28;20051;-67
2022/03/31 11:53:24;;;;;;;26.80;15.23;;;;;;;;;;4973392;28;20038;-66
2022/03/31 11:56:06;;;;;;;27.48;15.63;;;;;;;;;;4972470;28;20066;-66
2022/03/31 11:59:10;;;;;;;26.27;15.13;;;;;;;;;;4973384;28;20054;-66
2022/03/31 12:01:40;;;;;;;26.63;15.63;;;;;;;;;;4894711;29;20415;-65
2022/03/31 12:04:07;;;;;;;28.00;15.80;;;;;;;;;;4894584;29;20207;-65
2022/03/31 12:06:33;;;;;;;32.95;19.30;;;;;;;;;;4894757;29;20044;-65
2022/03/31 12:08:59;;;;;;;34.80;20.38;;;;;;;;;;4878311;29;20040;-66
2022/03/31 12:11:25;;;;;;;33.95;19.48;;;;;;;;;;4894809;29;20036;-66
2022/03/31 12:13:57;;;;;;;32.25;18.42;;;;;;;;;;4894099;29;20103;-66
2022/03/31 12:16:23;;;;;;;30.30;18.08;;;;;;;;;;4894535;29;20543;-66
2022/03/31 12:18:56;;;;;;;34.70;18.23;;;;;;;;;;4893802;29;20491;-66
2022/03/31 12:21:23;;;;;;;28.73;17.75;;;;;;;;;;4897924;29;20077;-66
2022/03/31 12:23:49;;;;;;;28.08;17.33;;;;;;;;;;4897665;29;20437;-65
2022/03/31 12:26:18;;;;;;;26.88;15.77;;;;;;;;;;4898209;29;20483;-66
2022/03/31 12:28:46;;;;;;;27.67;16.70;;;;;;;;;;4897522;29;20037;-66
2022/03/31 12:31:38;;;;;;;27.58;16.48;;;;;;;;;;4900315;28;20040;-66
2022/03/31 12:34:04;;;;;;;27.40;15.95;;;;;;;;;;4971976;28;20082;-66
2022/03/31 12:36:32;;;;;;;26.88;16.50;;;;;;;;;;4976391;28;20062;-66
2022/03/31 12:38:59;;;;;;;30.70;17.85;;;;;;;;;;4975845;28;20109;-66
2022/03/31 12:41:36;;;;;;;32.58;19.25;;;;;;;;;;4976505;28;20031;-65
2022/03/31 12:44:09;;;;;;;28.95;17.83;;;;;;;;;;4976483;28;20038;-67
2022/03/31 12:46:43;;;;;;;30.45;17.80;;;;;;;;;;4959025;28;20038;-66
2022/03/31 12:49:12;;;;;;;26.80;16.83;;;;;;;;;;4976383;28;20488;-66
2022/03/31 12:51:59;;;;;;;28.10;17.38;;;;;;;;;;4976668;28;20480;-65
2022/03/31 12:54:35;;;;;;;27.65;16.08;;;;;;;;;;4976262;28;20401;-66
2022/03/31 12:57:17;;;;;;;28.52;16.35;;;;;;;;;;4974402;28;20515;-66
2022/03/31 12:59:44;;;;;;;26.50;15.40;;;;;;;;;;4974223;28;20089;-66
2022/03/31 13:02:12;;;;;;;25.50;15.23;;;;;;;;;;4975032;28;20435;-65
2022/03/31 13:04:45;;;;;;;25.90;14.18;;;;;;;;;;4975982;28;20030;-65
2022/03/31 13:07:12;;;;;;;27.83;14.77;;;;;;;;;;4975947;28;20484;-65
2022/03/31 13:09:38;;;;;;;25.95;14.50;;;;;;;;;;4975457;28;20117;-66
2022/03/31 13:12:09;;;;;;;28.00;15.68;;;;;;;;;;4975185;28;20109;-65
2022/03/31 13:14:36;;;;;;;30.98;16.15;;;;;;;;;;4976016;28;20037;-65
2022/03/31 13:17:04;;;;;;;31.98;16.80;;;;;;;;;;4974059;28;20102;-65
2022/03/31 13:19:29;;;;;;;31.98;17.65;;;;;;;;;;4958134;28;20125;-65
2022/03/31 13:21:54;;;;;;;32.53;17.23;;;;;;;;;;4975430;28;20118;-66
2022/03/31 13:24:20;;;;;;;31.08;17.13;;;;;;;;;;4975698;28;20497;-66
2022/03/31 13:26:45;;;;;;;30.58;17.05;;;;;;;;;;4975052;28;20027;-66
2022/03/31 13:29:11;;;;;;;34.58;17.52;;;;;;;;;;4975339;28;20026;-66
2022/03/31 13:31:42;;;;;;;33.63;17.08;;;;;;;;;;4974657;28;20081;-66
2022/03/31 13:34:08;;;;;;;36.65;17.88;;;;;;;;;;4973705;28;20030;-65
2022/03/31 13:36:35;;;;;;;36.58;18.58;;;;;;;;;;4975558;28;20033;-66
2022/03/31 13:39:01;;;;;;;35.42;18.50;;;;;;;;;;4974751;28;20026;-66
2022/03/31 13:41:27;;;;;;;37.13;19.02;;;;;;;;;;4975471;28;20436;-66
2022/03/31 13:43:53;;;;;;;36.10;19.00;;;;;;;;;;4974823;28;20138;-66
2022/03/31 13:46:19;;;;;;;40.38;19.40;;;;;;;;;;4975328;28;20069;-66
2022/03/31 13:48:44;;;;;;;43.75;19.67;;;;;;;;;;4975284;28;20051;-66
2022/03/31 13:51:09;;;;;;;41.78;20.02;;;;;;;;;;4974679;28;20125;-66
2022/03/31 13:53:44;;;;;;;42.90;20.48;;;;;;;;;;4975130;28;20038;-66
2022/03/31 13:56:13;;;;;;;46.10;20.25;;;;;;;;;;4975393;28;20066;-66
2022/03/31 14:01:23;;;;;;;46.15;21.27;;;;;;;;;;4974808;28;20134;-66
2022/03/31 14:03:52;;;;;;;50.63;22.10;;;;;;;;;;4974285;28;20038;-66
2022/03/31 14:06:18;;;;;;;47.17;22.38;;;;;;;;;;4975006;28;20119;-67
2022/03/31 14:08:44;;;;;;;48.22;23.10;;;;;;;;;;4974847;28;20102;-66
2022/03/31 14:11:11;;;;;;;49.35;23.23;;;;;;;;;;4974012;28;20031;-66
2022/03/31 14:13:37;;;;;;;50.53;23.38;;;;;;;;;;4974721;28;20034;-67
2022/03/31 14:16:04;;;;;;;49.13;23.65;;;;;;;;;;4973733;28;20042;-66
2022/03/31 14:18:32;;;;;;;48.42;23.17;;;;;;;;;;4974754;28;20034;-67
2022/03/31 14:20:58;;;;;;;55.15;24.52;;;;;;;;;;4956475;28;20034;-66
2022/03/31 14:23:25;;;;;;;54.67;25.05;;;;;;;;;;4974566;28;20057;-67
2022/03/31 14:25:51;;;;;;;52.28;24.67;;;;;;;;;;4973628;28;20031;-67
2022/03/31 14:28:16;;;;;;;48.63;24.05;;;;;;;;;;4974438;28;20033;-67
2022/03/31 14:30:42;;;;;;;44.67;22.85;;;;;;;;;;4973090;28;20035;-67